createdAt,value
2018-12-16T00:00:13.823Z,37646.35
2018-12-16T00:02:19.275Z,37640.56
2018-12-16T00:04:25.397Z,37629.94
2018-12-16T00:06:31.197Z,37622.22
2018-12-16T00:08:36.400Z,37639.59
2018-12-16T00:10:42.825Z,37625.11
2018-12-16T00:12:47.730Z,37591.33
2018-12-16T00:14:53.675Z,37640.56
2018-12-16T00:16:58.687Z,37642.49
2018-12-16T00:19:04.761Z,37620.29
2018-12-16T00:21:10.654Z,37654.07
2018-12-16T00:23:15.543Z,37631.87
2018-12-16T00:25:21.706Z,37657.93
2018-12-16T00:27:27.398Z,37636.70
2018-12-16T00:29:33.817Z,37634.77
2018-12-16T00:31:39.943Z,37657.93
2018-12-16T00:33:46.939Z,37642.49
2018-12-16T00:35:53.002Z,37635.73
2018-12-16T00:37:58.000Z,37652.14
2018-12-16T00:40:03.564Z,37620.29
2018-12-16T00:42:09.862Z,37663.73
2018-12-16T00:44:15.125Z,37614.50
2018-12-16T00:46:20.456Z,37656.00
2018-12-16T00:48:25.510Z,37621.25
2018-12-16T00:50:30.642Z,37652.14
2018-12-16T00:52:36.731Z,37623.18
2018-12-16T00:54:42.472Z,37623.18
2018-12-16T00:56:48.078Z,37599.05
2018-12-16T00:58:53.329Z,37645.39
2018-12-16T01:00:58.850Z,37608.71
2018-12-16T01:03:04.202Z,37637.66
2018-12-16T01:05:10.969Z,37638.63
2018-12-16T01:07:17.080Z,37632.84
2018-12-16T01:09:22.086Z,37648.28
2018-12-16T01:11:27.058Z,37634.77
2018-12-16T01:13:31.948Z,37634.77
2018-12-16T01:15:37.650Z,37639.59
2018-12-16T01:17:43.635Z,37634.77
2018-12-16T01:19:49.361Z,37647.32
2018-12-16T01:21:54.439Z,37674.34
2018-12-16T01:23:59.456Z,37616.43
2018-12-16T01:26:04.358Z,37640.56
2018-12-16T01:28:09.445Z,37676.27
2018-12-16T01:30:14.664Z,37680.14
2018-12-16T01:32:20.623Z,37653.11
2018-12-16T01:34:25.890Z,37629.94
2018-12-16T01:36:31.694Z,37661.80
2018-12-16T01:38:37.529Z,37652.14
2018-12-16T01:40:42.647Z,37695.58
2018-12-16T01:42:48.745Z,37675.31
2018-12-16T01:44:54.303Z,37664.69
2018-12-16T01:46:59.554Z,37672.41
2018-12-16T01:49:05.365Z,37656.97
2018-12-16T01:51:11.107Z,37640.56
2018-12-16T01:53:16.120Z,37671.45
2018-12-16T01:55:21.071Z,37670.48
2018-12-16T01:57:27.362Z,37669.52
2018-12-16T01:59:33.647Z,37665.66
2018-12-16T02:01:40.810Z,37672.41
2018-12-16T02:03:46.982Z,37684.00
2018-12-16T02:05:52.333Z,37672.41
2018-12-16T02:07:57.410Z,37692.68
2018-12-16T02:10:02.929Z,37730.33
2018-12-16T02:12:08.081Z,37739.02
2018-12-16T02:14:14.940Z,37757.36
2018-12-16T02:16:21.549Z,37823.00
2018-12-16T02:18:26.645Z,37819.14
2018-12-16T02:20:31.673Z,37803.70
2018-12-16T02:22:38.613Z,37812.38
2018-12-16T02:24:44.484Z,37796.94
2018-12-16T02:26:49.516Z,37815.28
2018-12-16T02:28:55.586Z,37809.49
2018-12-16T02:31:00.793Z,37799.83
2018-12-16T02:33:06.299Z,37788.25
2018-12-16T02:35:12.347Z,37794.04
2018-12-16T02:37:18.104Z,37823.00
2018-12-16T02:39:22.938Z,37828.79
2018-12-16T02:41:28.074Z,37844.24
2018-12-16T02:43:33.135Z,37828.79
2018-12-16T02:45:38.705Z,37826.86
2018-12-16T02:47:46.051Z,37823.97
2018-12-16T02:49:51.369Z,37729.37
2018-12-16T02:51:56.860Z,37815.28
2018-12-16T02:54:01.892Z,37821.07
2018-12-16T02:56:07.112Z,37826.86
2018-12-16T02:58:12.308Z,37849.07
2018-12-16T03:00:18.222Z,37832.66
2018-12-16T03:02:23.240Z,37804.66
2018-12-16T03:04:30.114Z,37809.49
2018-12-16T03:06:36.449Z,37842.31
2018-12-16T03:08:41.775Z,37780.53
2018-12-16T03:10:46.805Z,37831.69
2018-12-16T03:12:51.941Z,37819.14
2018-12-16T03:14:56.968Z,37825.90
2018-12-16T03:17:02.079Z,37835.55
2018-12-16T03:19:07.090Z,37802.73
2018-12-16T03:21:12.067Z,37793.08
2018-12-16T03:23:17.152Z,37829.76
2018-12-16T03:25:22.397Z,37820.11
2018-12-16T03:27:27.315Z,37814.31
2018-12-16T03:29:32.761Z,37849.07
2018-12-16T03:31:37.983Z,37832.66
2018-12-16T03:33:43.112Z,37967.80
2018-12-16T03:35:48.331Z,37845.20
2018-12-16T03:37:53.471Z,37802.73
2018-12-16T03:39:58.312Z,37825.90
2018-12-16T03:42:03.270Z,37826.86
2018-12-16T03:44:09.912Z,37839.41
2018-12-16T03:46:14.962Z,37844.24
2018-12-16T03:48:22.191Z,37859.68
2018-12-16T03:50:27.256Z,37802.73
2018-12-16T03:52:33.188Z,37809.49
2018-12-16T03:54:38.130Z,37860.65
2018-12-16T03:56:43.342Z,37829.76
2018-12-16T03:59:04.849Z,37841.34
2018-12-16T04:01:10.027Z,37846.17
2018-12-16T04:03:14.963Z,37814.31
2018-12-16T04:05:20.055Z,37839.41
2018-12-16T04:07:25.349Z,37854.86
2018-12-16T04:09:30.504Z,37830.73
2018-12-16T04:11:35.655Z,37821.07
2018-12-16T04:13:40.792Z,37813.35
2018-12-16T04:18:01.877Z,37854.86
2018-12-16T04:20:07.308Z,37868.37
2018-12-16T04:22:12.122Z,37848.10
2018-12-16T04:24:17.337Z,37853.89
2018-12-16T04:26:23.388Z,37815.28
2018-12-16T04:28:28.621Z,37824.93
2018-12-16T04:30:35.201Z,37828.79
2018-12-16T04:32:40.276Z,37841.34
2018-12-16T04:34:45.268Z,37851.00
2018-12-16T04:36:50.887Z,37870.30
2018-12-16T04:38:55.876Z,37869.34
2018-12-16T04:41:00.893Z,37915.67
2018-12-16T04:43:06.021Z,37824.93
2018-12-16T04:45:11.498Z,37862.58
2018-12-16T04:47:16.476Z,37887.68
2018-12-16T04:49:21.705Z,37883.82
2018-12-16T04:51:27.235Z,37845.20
2018-12-16T04:53:36.102Z,37914.71
2018-12-16T04:55:39.938Z,37865.48
2018-12-16T04:57:45.039Z,37891.54
2018-12-16T04:59:49.938Z,37804.66
2018-12-16T05:01:54.945Z,37866.44
2018-12-16T05:04:00.082Z,37906.98
2018-12-16T05:06:05.119Z,37878.03
2018-12-16T05:08:10.193Z,37884.78
2018-12-16T05:10:29.441Z,37874.16
2018-12-16T05:12:34.269Z,37859.68
2018-12-16T05:14:39.076Z,37878.03
2018-12-16T05:16:43.951Z,37913.74
2018-12-16T05:18:48.886Z,37884.78
2018-12-16T05:20:54.214Z,37862.58
2018-12-16T05:22:59.126Z,37878.03
2018-12-16T05:25:04.008Z,37888.64
2018-12-16T05:27:08.888Z,37862.58
2018-12-16T05:29:13.912Z,37827.83
2018-12-16T05:31:20.169Z,37849.07
2018-12-16T05:33:25.652Z,37836.52
2018-12-16T05:37:33.830Z,37819.14
2018-12-16T05:39:38.866Z,37848.10
2018-12-16T05:41:43.846Z,37819.14
2018-12-16T05:43:48.588Z,37813.35
2018-12-16T05:45:53.471Z,37040.21
2018-12-16T05:47:58.378Z,37810.45
2018-12-16T05:50:03.694Z,37830.73
2018-12-16T05:52:09.235Z,37874.16
2018-12-16T05:54:14.758Z,37830.73
2018-12-16T05:56:19.788Z,37855.82
2018-12-16T05:58:24.628Z,37836.52
2018-12-16T06:00:29.558Z,37841.34
2018-12-16T06:02:34.604Z,37851.00
2018-12-16T06:04:40.524Z,37847.13
2018-12-16T06:06:45.559Z,37840.38
2018-12-16T06:08:50.461Z,37842.31
2018-12-16T06:10:55.456Z,37823.00
2018-12-16T06:13:00.397Z,37871.27
2018-12-16T06:15:05.618Z,37827.83
2018-12-16T06:17:11.690Z,37830.73
2018-12-16T06:19:18.035Z,37837.48
2018-12-16T06:21:24.252Z,37840.38
2018-12-16T06:23:29.879Z,37822.04
2018-12-16T06:25:35.264Z,37850.03
2018-12-16T06:27:40.173Z,37845.20
2018-12-16T06:29:45.561Z,37815.28
2018-12-16T06:31:50.470Z,37851.00
2018-12-16T06:33:56.315Z,37840.38
2018-12-16T06:36:01.424Z,37856.79
2018-12-16T06:38:07.520Z,37849.07
2018-12-16T06:40:13.690Z,37839.41
2018-12-16T06:42:19.605Z,37834.59
2018-12-16T06:44:25.414Z,37854.86
2018-12-16T06:46:30.994Z,37840.38
2018-12-16T06:48:36.507Z,37828.79
2018-12-16T06:50:42.412Z,37838.45
2018-12-16T06:52:49.382Z,37826.86
2018-12-16T06:54:54.714Z,37820.11
2018-12-16T06:57:01.640Z,37875.13
2018-12-16T06:59:07.540Z,37836.52
2018-12-16T07:01:12.960Z,37842.31
2018-12-16T07:03:17.933Z,37793.08
2018-12-16T07:05:26.458Z,37838.45
2018-12-16T07:07:31.407Z,37852.93
2018-12-16T07:09:36.384Z,37839.41
2018-12-16T07:11:41.551Z,37834.59
2018-12-16T07:13:46.510Z,37856.79
2018-12-16T07:15:51.357Z,37861.62
2018-12-16T07:17:56.863Z,37824.93
2018-12-16T07:20:02.672Z,37879.96
2018-12-16T07:22:09.865Z,37858.72
2018-12-16T07:24:15.123Z,37867.41
2018-12-16T07:26:21.974Z,37884.78
2018-12-16T07:28:27.159Z,37872.23
2018-12-16T07:30:32.320Z,37856.79
2018-12-16T07:32:37.678Z,37840.38
2018-12-16T07:34:44.176Z,37857.75
2018-12-16T07:36:49.226Z,37873.20
2018-12-16T07:38:55.000Z,37893.47
2018-12-16T07:41:00.423Z,37873.20
2018-12-16T07:43:05.344Z,37882.85
2018-12-16T07:45:10.567Z,37889.61
2018-12-16T07:47:16.632Z,37877.06
2018-12-16T07:49:21.687Z,37849.07
2018-12-16T07:51:27.867Z,37880.92
2018-12-16T07:53:33.938Z,37873.20
2018-12-16T07:55:38.907Z,37870.30
2018-12-16T07:57:46.549Z,37845.20
2018-12-16T07:59:51.716Z,37878.99
2018-12-16T08:01:57.284Z,37848.10
2018-12-16T08:04:02.193Z,37881.89
2018-12-16T08:06:07.370Z,37837.48
2018-12-16T08:08:14.791Z,37898.30
2018-12-16T08:10:20.141Z,37862.58
2018-12-16T08:12:25.165Z,37893.47
2018-12-16T08:14:30.864Z,37857.75
2018-12-16T08:16:36.262Z,37868.37
2018-12-16T08:18:41.989Z,37935.95
2018-12-16T08:20:48.412Z,37853.89
2018-12-16T08:22:54.328Z,37903.12
2018-12-16T08:24:59.503Z,37878.99
2018-12-16T08:27:05.550Z,37935.95
2018-12-16T08:29:10.486Z,37867.41
2018-12-16T08:31:15.624Z,37926.29
2018-12-16T08:33:20.747Z,37906.02
2018-12-16T08:35:26.043Z,37913.74
2018-12-16T08:37:31.340Z,37927.26
2018-12-16T08:39:37.033Z,37928.22
2018-12-16T08:41:44.185Z,37939.81
2018-12-16T08:43:49.123Z,37912.78
2018-12-16T08:45:54.498Z,37917.61
2018-12-16T08:48:00.142Z,37897.33
2018-12-16T08:50:06.598Z,37929.19
2018-12-16T08:52:11.660Z,37892.51
2018-12-16T08:54:16.861Z,37919.54
2018-12-16T08:56:23.700Z,37904.09
2018-12-16T08:58:28.714Z,37906.98
2018-12-16T09:00:33.913Z,37909.88
2018-12-16T09:02:39.231Z,37911.81
2018-12-16T09:04:44.351Z,37950.43
2018-12-16T09:06:49.581Z,37903.12
2018-12-16T09:08:55.373Z,37958.15
2018-12-16T09:11:00.663Z,37943.67
2018-12-16T09:13:05.793Z,37946.57
2018-12-16T09:15:11.174Z,37935.95
2018-12-16T09:17:16.933Z,37951.39
2018-12-16T09:19:22.532Z,37955.25
2018-12-16T09:21:27.882Z,37977.46
2018-12-16T09:23:36.412Z,37963.94
2018-12-16T09:25:41.403Z,37942.70
2018-12-16T09:27:46.589Z,37958.15
2018-12-16T09:29:59.951Z,37995.80
2018-12-16T09:32:04.890Z,37981.32
2018-12-16T09:34:10.187Z,37971.66
2018-12-16T09:54:26.341Z,38018.00
2018-12-16T09:56:31.410Z,38037.31
2018-12-16T09:58:36.287Z,38054.69
2018-12-16T10:00:41.566Z,38054.69
2018-12-16T10:02:46.776Z,38040.21
2018-12-16T10:04:51.698Z,38035.38
2018-12-16T10:06:57.147Z,38036.34
2018-12-16T10:09:02.452Z,38073.03
2018-12-16T10:11:08.221Z,38048.89
2018-12-16T10:13:13.387Z,38032.48
2018-12-16T10:33:24.878Z,38071.10
2018-12-16T10:35:30.070Z,38011.25
2018-12-16T10:37:36.178Z,38017.04
2018-12-16T10:39:43.050Z,38098.13
2018-12-16T10:41:49.103Z,38092.34
2018-12-16T10:43:54.714Z,38105.86
2018-12-16T10:46:01.048Z,38090.41
2018-12-16T10:48:07.066Z,38099.10
2018-12-16T10:50:12.526Z,38112.61
2018-12-16T11:10:07.599Z,38120.34
2018-12-16T11:12:13.966Z,38125.16
2018-12-16T11:14:19.355Z,38120.34
2018-12-16T11:16:24.594Z,38126.13
2018-12-16T11:18:30.025Z,38148.33
2018-12-16T11:20:35.346Z,38131.92
2018-12-16T11:22:40.660Z,38126.13
2018-12-16T11:24:47.646Z,38125.16
2018-12-16T11:26:53.114Z,38181.16
2018-12-16T11:28:59.064Z,38163.78
2018-12-16T11:31:04.375Z,38179.23
2018-12-16T11:33:10.122Z,38161.85
2018-12-16T11:35:15.332Z,38176.33
2018-12-16T11:37:21.130Z,38185.98
2018-12-16T11:39:28.911Z,38201.43
2018-12-16T11:41:35.803Z,38185.02
2018-12-16T11:43:47.428Z,38202.40
2018-12-16T11:45:55.016Z,38221.71
2018-12-16T11:48:03.758Z,38212.05
2018-12-16T11:50:10.278Z,38230.39
2018-12-16T11:52:15.647Z,38213.98
2018-12-16T11:54:22.037Z,38204.33
2018-12-16T11:56:28.219Z,38230.39
2018-12-16T11:58:33.756Z,38208.19
2018-12-16T12:03:24.386Z,38136.75
2018-12-16T12:05:33.424Z,38077.86
2018-12-16T12:07:44.662Z,38230.39
2018-12-16T12:09:50.357Z,38225.57
2018-12-16T12:11:56.487Z,38204.33
2018-12-16T12:14:01.879Z,38240.05
2018-12-16T12:16:07.804Z,38203.36
2018-12-16T12:18:13.207Z,38225.57
2018-12-16T12:20:19.580Z,38260.32
2018-12-16T12:22:24.983Z,38230.39
2018-12-16T12:24:31.541Z,38259.36
2018-12-16T12:26:37.436Z,38292.18
2018-12-16T12:28:43.199Z,38279.63
2018-12-16T12:30:48.380Z,38252.60
2018-12-16T12:32:53.739Z,38254.53
2018-12-16T12:34:59.079Z,38249.70
2018-12-16T12:37:05.550Z,38279.63
2018-12-16T12:39:13.205Z,38285.43
2018-12-16T12:41:18.889Z,38258.39
2018-12-16T12:43:25.253Z,38265.15
2018-12-16T12:45:30.362Z,38235.22
2018-12-16T12:47:35.934Z,38285.43
2018-12-16T12:49:44.947Z,38260.32
2018-12-16T12:51:48.500Z,38297.01
2018-12-16T12:53:53.737Z,38268.05
2018-12-16T12:56:00.061Z,38273.84
2018-12-16T12:58:06.617Z,38306.67
2018-12-16T13:00:15.356Z,38280.60
2018-12-16T13:02:20.759Z,38312.46
2018-12-16T13:04:26.113Z,38290.25
2018-12-16T13:06:31.842Z,38309.56
2018-12-16T13:08:38.471Z,38303.77
2018-12-16T13:10:43.834Z,38296.05
2018-12-16T13:12:49.294Z,38320.18
2018-12-16T13:17:13.945Z,38306.67
2018-12-16T13:19:19.290Z,38330.80
2018-12-16T13:21:25.794Z,38302.80
2018-12-16T13:23:32.921Z,38306.67
2018-12-16T13:25:54.571Z,38325.98
2018-12-16T13:27:59.723Z,38341.42
2018-12-16T13:30:06.142Z,38335.63
2018-12-16T13:32:11.673Z,38308.60
2018-12-16T13:34:18.419Z,38284.46
2018-12-16T13:36:29.258Z,38288.32
2018-12-16T13:38:37.512Z,38333.70
2018-12-16T13:40:47.102Z,38357.84
2018-12-16T13:42:54.513Z,38370.39
2018-12-16T13:44:59.683Z,38321.15
2018-12-16T13:47:04.934Z,38252.60
2018-12-16T13:49:11.466Z,38396.46
2018-12-16T13:51:16.851Z,38339.49
2018-12-16T13:53:22.231Z,38383.91
2018-12-16T13:55:28.823Z,38353.98
2018-12-16T13:57:35.382Z,38363.63
2018-12-16T13:59:41.299Z,38297.01
2018-12-16T14:01:46.907Z,38319.21
2018-12-16T14:03:54.267Z,38364.59
2018-12-16T14:05:59.640Z,38379.08
2018-12-16T14:08:05.749Z,38338.53
2018-12-16T14:28:17.331Z,38368.46
2018-12-16T14:30:22.533Z,38366.52
2018-12-16T14:32:27.941Z,38353.98
2018-12-16T14:34:33.353Z,38371.35
2018-12-16T14:36:38.931Z,38353.98
2018-12-16T14:38:44.573Z,38343.36
2018-12-16T14:40:50.207Z,38365.56
2018-12-16T14:42:55.860Z,38342.39
2018-12-16T14:45:01.207Z,38368.46
2018-12-16T14:47:07.222Z,38373.29
2018-12-16T14:49:12.897Z,38375.21
2018-12-16T14:51:18.089Z,38373.29
2018-12-16T14:53:23.502Z,38318.25
2018-12-16T14:55:28.810Z,38365.56
2018-12-16T14:57:34.063Z,38335.63
2018-12-16T14:59:39.374Z,38376.18
2018-12-16T15:01:44.518Z,38371.35
2018-12-16T15:03:49.799Z,38380.04
2018-12-16T15:05:55.258Z,38381.01
2018-12-16T15:08:01.471Z,38350.11
2018-12-16T15:10:10.974Z,38395.49
2018-12-16T15:12:16.588Z,38377.14
2018-12-16T15:14:22.122Z,38379.08
2018-12-16T15:16:29.000Z,38382.94
2018-12-16T15:18:34.530Z,38381.97
2018-12-16T15:20:39.786Z,38394.52
2018-12-16T15:22:45.029Z,38399.35
2018-12-16T15:24:50.603Z,38400.32
2018-12-16T15:26:55.955Z,38363.63
2018-12-16T15:29:01.644Z,38367.49
2018-12-16T15:31:07.597Z,38356.87
2018-12-16T15:33:13.357Z,38377.14
2018-12-16T15:35:18.543Z,38395.49
2018-12-16T15:37:24.256Z,38398.39
2018-12-16T15:39:29.880Z,38431.21
2018-12-16T15:41:35.228Z,38399.35
2018-12-16T15:43:40.669Z,38380.04
2018-12-16T15:45:46.071Z,38351.08
2018-12-16T15:47:51.256Z,38385.84
2018-12-16T15:49:58.789Z,38385.84
2018-12-16T15:52:04.679Z,38395.49
2018-12-16T15:54:14.301Z,38407.08
2018-12-16T15:56:19.611Z,38298.94
2018-12-16T15:58:24.833Z,38395.49
2018-12-16T16:00:29.823Z,38402.25
2018-12-16T16:02:35.255Z,38403.21
2018-12-16T16:04:40.980Z,38364.59
2018-12-16T16:24:54.336Z,38433.14
2018-12-16T16:26:59.934Z,38392.59
2018-12-16T16:29:05.649Z,38389.70
2018-12-16T16:31:12.391Z,38409.01
2018-12-16T16:33:19.099Z,38385.84
2018-12-16T16:35:25.359Z,38412.87
2018-12-16T16:37:30.770Z,38410.94
2018-12-16T16:39:36.218Z,38409.01
2018-12-16T16:41:42.150Z,38424.45
2018-12-16T16:43:47.903Z,38436.04
2018-12-16T16:45:53.503Z,38439.90
2018-12-16T16:47:59.709Z,38419.63
2018-12-16T16:50:06.077Z,38430.25
2018-12-16T16:54:34.743Z,38465.01
2018-12-16T16:56:40.327Z,38415.77
2018-12-16T16:58:45.725Z,38437.97
2018-12-16T17:00:53.467Z,38423.49
2018-12-16T17:03:00.683Z,38452.46
2018-12-16T17:05:06.527Z,38483.35
2018-12-16T17:07:13.604Z,38398.39
2018-12-16T17:09:18.829Z,38427.35
2018-12-16T17:13:49.737Z,38459.21
2018-12-16T17:15:55.767Z,38376.18
2018-12-16T17:18:01.073Z,38458.25
2018-12-16T17:20:07.535Z,38464.04
2018-12-16T17:22:14.932Z,38440.87
2018-12-16T17:24:23.018Z,38457.28
2018-12-16T17:26:30.380Z,38447.63
2018-12-16T17:28:36.383Z,38510.39
2018-12-16T17:30:43.138Z,38456.32
2018-12-16T17:32:49.004Z,38450.52
2018-12-16T17:34:54.378Z,38446.66
2018-12-16T17:36:59.949Z,38445.70
2018-12-16T17:39:08.238Z,38473.70
2018-12-16T17:41:14.059Z,38458.25
2018-12-16T17:43:19.583Z,38496.87
2018-12-16T18:03:32.364Z,38505.56
2018-12-16T18:23:49.615Z,38471.77
2018-12-16T18:25:59.403Z,38475.62
2018-12-16T18:28:09.032Z,38512.32
2018-12-16T18:30:15.440Z,38534.52
2018-12-16T18:32:22.689Z,38511.35
2018-12-16T18:34:30.733Z,38515.21
2018-12-16T18:36:43.118Z,38531.63
2018-12-16T18:38:55.650Z,38453.42
2018-12-16T18:41:05.344Z,38542.25
2018-12-16T18:43:12.341Z,38524.87
2018-12-16T18:45:28.785Z,38509.42
2018-12-16T18:47:35.537Z,38513.28
2018-12-16T18:52:04.044Z,38533.56
2018-12-16T18:54:13.590Z,38533.56
2018-12-16T18:56:19.647Z,38553.84
2018-12-16T18:58:31.634Z,38531.63
2018-12-16T19:00:37.927Z,38529.70
2018-12-16T19:02:46.931Z,38541.28
2018-12-16T19:04:53.646Z,38538.39
2018-12-16T19:06:58.998Z,38522.94
2018-12-16T19:09:08.539Z,38535.49
2018-12-16T19:11:20.305Z,38522.94
2018-12-16T19:13:29.042Z,38518.11
2018-12-16T19:15:39.970Z,38522.94
2018-12-16T19:17:50.469Z,38533.56
2018-12-16T19:19:59.988Z,38508.45
2018-12-16T19:22:10.057Z,38542.25
2018-12-16T19:24:24.371Z,38547.08
2018-12-16T19:26:37.755Z,38550.94
2018-12-16T19:28:47.580Z,38524.87
2018-12-16T19:31:04.607Z,38565.42
2018-12-16T19:33:15.245Z,38542.25
2018-12-16T19:35:28.298Z,38530.66
2018-12-16T19:37:34.853Z,38522.94
2018-12-16T19:57:47.919Z,38499.77
2018-12-16T19:59:54.902Z,38465.01
2018-12-16T20:02:01.702Z,38544.18
2018-12-16T20:04:23.371Z,38551.90
2018-12-16T20:06:34.629Z,38564.46
2018-12-16T20:08:43.460Z,38521.97
2018-12-16T20:10:54.507Z,38512.32
2018-12-16T20:13:03.657Z,38521.97
2018-12-16T20:15:10.580Z,38517.14
2018-12-16T20:17:20.752Z,38531.63
2018-12-16T20:19:26.933Z,38519.07
2018-12-16T20:21:42.213Z,38545.14
2018-12-16T20:23:51.907Z,38483.35
2018-12-16T20:25:59.495Z,38511.35
2018-12-16T20:28:12.205Z,38509.42
2018-12-16T20:30:19.556Z,38513.28
2018-12-16T20:32:28.771Z,38481.42
2018-12-16T20:34:39.732Z,38481.42
2018-12-16T20:36:47.656Z,38515.21
2018-12-16T20:57:00.544Z,38510.39
2018-12-16T20:59:14.793Z,38545.14
2018-12-16T21:01:27.109Z,38569.29
2018-12-16T21:03:39.086Z,38557.70
2018-12-16T21:05:52.519Z,37864.51
2018-12-16T21:26:22.942Z,38601.14
2018-12-16T21:28:28.610Z,38614.66
2018-12-16T21:30:36.050Z,38604.04
2018-12-16T21:32:46.231Z,38558.66
2018-12-16T21:37:38.523Z,38554.80
2018-12-16T21:40:04.572Z,38595.36
2018-12-16T21:42:13.605Z,38501.70
2018-12-16T21:44:44.517Z,38511.35
2018-12-16T21:46:50.695Z,38521.97
2018-12-16T21:49:00.319Z,38525.84
2018-12-16T21:51:13.007Z,38504.59
2018-12-16T21:53:20.036Z,38481.42
2018-12-16T21:55:28.997Z,38536.46
2018-12-16T21:57:36.597Z,38522.94
2018-12-16T21:59:45.088Z,38509.42
2018-12-16T22:01:52.189Z,38509.42
2018-12-16T22:03:58.098Z,38539.35
2018-12-16T22:06:05.476Z,38508.45
2018-12-16T22:08:11.319Z,38530.66
2018-12-16T22:10:19.229Z,38528.73
2018-12-16T22:12:24.701Z,38517.14
2018-12-16T22:17:14.731Z,38493.01
2018-12-16T22:19:20.503Z,38510.39
2018-12-16T22:21:26.750Z,38489.14
2018-12-16T22:23:31.887Z,38471.77
2018-12-16T22:25:37.009Z,38491.07
2018-12-16T22:27:42.727Z,38501.70
2018-12-16T22:29:47.826Z,38523.90
2018-12-16T22:31:53.680Z,38463.07
2018-12-16T22:33:59.107Z,38474.66
2018-12-16T22:36:04.244Z,38483.35
2018-12-16T22:38:09.551Z,38456.32
2018-12-16T22:40:15.124Z,38471.77
2018-12-16T22:42:24.707Z,38481.42
2018-12-16T22:44:31.287Z,38469.84
2018-12-16T22:46:37.442Z,38478.52
2018-12-16T22:48:42.833Z,38472.73
2018-12-16T22:50:50.683Z,38493.97
2018-12-16T22:53:05.269Z,38448.59
2018-12-16T22:55:17.607Z,38481.42
2018-12-16T22:57:24.013Z,38489.14
2018-12-16T22:59:29.188Z,38471.77
2018-12-16T23:01:35.047Z,38470.80
2018-12-16T23:03:40.483Z,38493.01
2018-12-16T23:05:45.498Z,38505.56
2018-12-16T23:07:57.428Z,38491.07
2018-12-16T23:10:02.843Z,38521.97
2018-12-16T23:12:08.032Z,38543.21
2018-12-16T23:14:13.095Z,38544.18
2018-12-16T23:16:18.479Z,38543.21
2018-12-16T23:18:23.613Z,38547.08
2018-12-16T23:20:29.678Z,38563.49
2018-12-16T23:22:34.994Z,38554.80
2018-12-16T23:24:41.297Z,38556.73
2018-12-16T23:26:46.268Z,38578.94
2018-12-16T23:28:51.313Z,38575.08
2018-12-16T23:30:57.765Z,38555.77
2018-12-16T23:33:02.963Z,38574.11
2018-12-16T23:35:25.106Z,38568.32
2018-12-16T23:37:30.566Z,38570.25
2018-12-16T23:39:35.996Z,38586.66
2018-12-16T23:41:41.747Z,38586.66
2018-12-16T23:43:50.246Z,38590.53
2018-12-16T23:45:56.238Z,38592.46
2018-12-16T23:48:01.283Z,38583.77
2018-12-16T23:50:08.196Z,38596.32
2018-12-16T23:52:13.271Z,38583.77
2018-12-16T23:54:18.538Z,38632.05
2018-12-16T23:56:24.214Z,38615.63
2018-12-16T23:58:29.513Z,38613.70
